Time;durP1;ratioP1;P1;durP2;ratioP2;P2;SDS_P1;SDS_P2;PMS_P1;PMS_P2;Temp;Humidity;BMP_temperature;BMP_pressure;BME280_temperature;BME280_humidity;BME280_pressure;Samples;Min_cycle;Max_cycle;Signal;HPM_P1;HPM_P2
2024/03/18 00:06:51;;;;;;;26.40;19.67;;;11.40;1.00;;;;;;21157776;22;20034;-49
2024/03/18 00:16:52;;;;;;;28.00;20.67;;;11.40;1.00;;;;;;21300444;22;20144;-48
2024/03/18 00:26:53;;;;;;;29.42;20.20;;;11.20;1.00;;;;;;21247293;22;20426;-49
2024/03/18 00:36:54;;;;;;;29.83;20.27;;;11.20;1.00;;;;;;21237300;22;20046;-48
2024/03/18 00:57:10;;;;;;;34.13;21.02;;;11.10;1.00;;;;;;21412406;22;20025;-48
2024/03/18 01:07:11;;;;;;;32.03;20.17;;;11.10;1.00;;;;;;21335190;22;20080;-48
2024/03/18 01:17:12;;;;;;;36.58;22.40;;;11.00;1.00;;;;;;21436739;22;20046;-50
2024/03/18 01:27:14;;;;;;;36.35;22.20;;;10.90;1.00;;;;;;21205656;22;20038;-48
2024/03/18 01:37:14;;;;;;;38.10;22.65;;;10.90;1.00;;;;;;21219186;22;20101;-50
2024/03/18 01:47:15;;;;;;;38.67;23.17;;;10.80;1.00;;;;;;21200782;22;20046;-48
2024/03/18 01:57:16;;;;;;;41.08;23.98;;;10.80;1.00;;;;;;21227742;23;20049;-50
2024/03/18 02:07:21;;;;;;;41.38;23.20;;;10.90;1.00;;;;;;21110408;23;20526;-48
2024/03/18 02:17:22;;;;;;;48.53;27.25;;;10.90;1.00;;;;;;21226239;22;20074;-48
2024/03/18 02:27:28;;;;;;;51.50;27.52;;;10.90;1.00;;;;;;21154000;23;20038;-49
2024/03/18 02:57:43;;;;;;;58.67;31.48;;;10.90;1.00;;;;;;21235808;23;20120;-49
2024/03/18 03:28:08;;;;;;;56.35;28.65;;;10.90;1.00;;;;;;20859428;22;20053;-86
2024/03/18 03:38:21;;;;;;;53.80;27.50;;;11.00;1.00;;;;;;20839568;28;20041;-85
2024/03/18 03:48:24;;;;;;;55.33;27.38;;;10.90;1.00;;;;;;20786531;28;20077;-85
2024/03/18 03:58:36;;;;;;;51.88;26.83;;;10.90;1.00;;;;;;20755331;28;20053;-86
2024/03/18 04:08:43;;;;;;;50.92;26.23;;;11.00;1.00;;;;;;20816093;28;20084;-86
2024/03/18 04:28:54;;;;;;;44.50;23.83;;;11.00;1.00;;;;;;21293427;22;20190;-48
2024/03/18 04:48:58;;;;;;;52.20;25.30;;;10.90;99.90;;;;;;21267864;23;20145;-50
2024/03/18 04:58:59;;;;;;;46.17;24.52;;;10.90;99.90;;;;;;21335912;22;20551;-48
2024/03/18 05:09:00;;;;;;;47.92;23.30;;;10.90;99.90;;;;;;21341922;22;20053;-48
2024/03/18 05:19:01;;;;;;;49.20;25.73;;;10.90;99.90;;;;;;21331186;22;20049;-48
2024/03/18 05:39:51;;;;;;;44.67;23.25;;;10.80;99.90;;;;;;20676318;28;20037;-86
2024/03/18 06:00:04;;;;;;;37.70;20.15;;;10.90;99.90;;;;;;21427441;22;20094;-49
2024/03/18 06:10:05;;;;;;;36.83;20.23;;;10.80;99.90;;;;;;21448044;22;20169;-49
2024/03/18 06:20:07;;;;;;;44.20;21.15;;;10.80;99.90;;;;;;21289209;23;20483;-48
2024/03/18 06:30:08;;;;;;;32.80;19.55;;;10.80;99.90;;;;;;21345719;23;20045;-48
2024/03/18 06:40:11;;;;;;;39.22;20.00;;;10.80;99.90;;;;;;21311207;23;20136;-49
2024/03/18 06:50:12;;;;;;;31.75;17.17;;;10.80;99.90;;;;;;21287818;23;20052;-49
2024/03/18 07:10:16;;;;;;;36.80;19.77;;;10.90;99.90;;;;;;21100941;23;21080;-48
2024/03/18 07:20:17;;;;;;;38.03;20.30;;;10.90;99.90;;;;;;21343861;23;20059;-49
2024/03/18 07:30:18;;;;;;;40.40;21.13;;;10.90;99.90;;;;;;21391399;23;20041;-48
2024/03/18 07:51:09;;;;;;;50.25;24.20;;;10.90;99.90;;;;;;21118371;23;20064;-86
2024/03/18 08:12:03;;;;;;;53.97;24.05;;;11.00;99.90;;;;;;21265232;23;19922;-49
2024/03/18 08:22:06;;;;;;;44.30;21.85;;;11.00;99.90;;;;;;21217480;23;20499;-48
2024/03/18 08:32:07;;;;;;;48.65;20.85;;;11.10;99.90;;;;;;21202747;23;20534;-49
2024/03/18 08:42:08;;;;;;;56.03;23.70;;;11.20;99.90;;;;;;21128781;22;20111;-48
2024/03/18 08:52:09;;;;;;;47.70;19.57;;;11.40;99.90;;;;;;21218639;23;20033;-49
2024/03/18 09:22:24;;;;;;;35.67;17.08;;;12.20;99.90;;;;;;21088665;23;20049;-49
2024/03/18 09:32:25;;;;;;;29.83;12.10;;;12.40;99.90;;;;;;21313646;23;20072;-48
2024/03/18 09:42:27;;;;;;;25.25;10.60;;;12.60;99.90;;;;;;21228674;22;20424;-48
2024/03/18 09:52:37;;;;;;;19.70;7.53;;;12.90;93.60;;;;;;21084282;23;20530;-49
2024/03/18 10:02:38;;;;;;;14.75;3.40;;;13.00;65.40;;;;;;21282887;23;20038;-48
2024/03/18 10:12:39;;;;;;;9.38;2.55;;;13.30;21.10;;;;;;21238048;23;20069;-48
2024/03/18 10:22:41;;;;;;;10.90;2.90;;;13.70;1.40;;;;;;21316873;23;20045;-49
2024/03/18 10:32:44;;;;;;;14.50;2.47;;;14.20;1.00;;;;;;21360807;22;20037;-47
2024/03/18 10:42:55;;;;;;;9.82;2.10;;;14.60;1.00;;;;;;20924675;22;20049;-87
2024/03/18 10:53:43;;;;;;;11.52;2.67;;;14.90;1.00;;;;;;20828787;28;20100;-87
2024/03/18 11:04:14;;;;;;;6.90;2.17;;;14.90;1.00;;;;;;21019116;22;20131;-48
2024/03/18 11:37:19;;;;;;;7.07;1.40;;;16.30;1.00;;;;;;20955311;22;20621;-48
2024/03/18 11:47:20;;;;;;;7.68;1.33;;;16.80;1.00;;;;;;21355039;22;20056;-49
2024/03/18 12:07:51;;;;;;;7.78;2.25;;;17.60;1.00;;;;;;21336754;22;20045;-48
2024/03/18 12:17:52;;;;;;;4.28;1.02;;;17.70;1.00;;;;;;21381325;22;20041;-48
2024/03/18 12:39:04;;;;;;;5.53;0.90;;;18.60;1.00;;;;;;20872642;28;20034;-86
2024/03/18 12:49:11;;;;;;;7.50;1.23;;;18.70;1.00;;;;;;20805694;28;20045;-85
2024/03/18 12:59:18;;;;;;;7.88;1.42;;;17.70;1.00;;;;;;20896355;28;20105;-84
2024/03/18 13:09:21;;;;;;;6.25;0.95;;;17.80;1.00;;;;;;20834678;28;20080;-81
2024/03/18 13:19:23;;;;;;;6.15;1.25;;;17.20;1.00;;;;;;20896095;28;20040;-83
2024/03/18 13:29:31;;;;;;;7.50;1.05;;;18.40;1.00;;;;;;20887523;28;20045;-82
2024/03/18 13:39:34;;;;;;;6.85;1.23;;;17.60;1.00;;;;;;20840696;28;20045;-83
2024/03/18 13:50:03;;;;;;;4.00;1.10;;;17.10;1.00;;;;;;20848812;28;20045;-85
2024/03/18 14:33:12;;;;;;;6.47;1.17;;;17.50;1.00;;;;;;20743979;28;20046;-87
2024/03/18 15:03:46;;;;;;;3.97;1.05;;;16.80;1.00;;;;;;21048883;22;20056;-50
2024/03/18 15:33:58;;;;;;;8.98;1.42;;;16.30;1.00;;;;;;21088936;23;20049;-86
2024/03/18 15:44:01;;;;;;;8.70;1.58;;;16.30;1.00;;;;;;20654664;28;20015;-86
2024/03/18 15:54:21;;;;;;;8.55;1.65;;;15.90;1.00;;;;;;20692465;28;20583;-85
2024/03/18 16:04:21;;;;;;;6.57;1.45;;;15.70;1.00;;;;;;20698704;28;20042;-85
2024/03/18 16:14:23;;;;;;;8.67;1.60;;;15.40;1.00;;;;;;20761809;28;20049;-84
2024/03/18 16:24:23;;;;;;;8.25;1.70;;;15.20;1.00;;;;;;20741497;28;20037;-85
2024/03/18 16:34:24;;;;;;;7.35;1.63;;;14.90;1.00;;;;;;20767234;28;20123;-84
2024/03/18 16:44:25;;;;;;;7.68;1.90;;;14.70;1.00;;;;;;20773516;28;20047;-84
2024/03/18 16:54:25;;;;;;;6.38;2.10;;;14.50;1.00;;;;;;20801733;28;20076;-85
2024/03/18 17:04:26;;;;;;;9.43;2.83;;;14.40;1.00;;;;;;20784433;28;20026;-84
2024/03/18 17:14:31;;;;;;;7.20;3.45;;;14.30;1.00;;;;;;20866500;22;20053;-84
2024/03/18 17:24:32;;;;;;;11.50;4.38;;;14.20;1.00;;;;;;20841084;28;20047;-84
2024/03/18 17:34:33;;;;;;;11.52;4.68;;;13.80;1.00;;;;;;20886113;22;20050;-87
2024/03/18 17:44:35;;;;;;;10.90;6.10;;;13.70;1.00;;;;;;20834364;23;20049;-84
2024/03/18 17:54:38;;;;;;;12.60;6.82;;;13.50;1.00;;;;;;20852259;28;20515;-85
2024/03/18 18:04:39;;;;;;;12.02;6.22;;;13.40;1.00;;;;;;20852628;28;20503;-84
2024/03/18 18:15:29;;;;;;;10.00;4.93;;;13.30;1.00;;;;;;20873506;28;20041;-87
2024/03/18 18:25:35;;;;;;;10.10;7.03;;;12.90;1.00;;;;;;20786626;28;20046;-85
2024/03/18 18:36:00;;;;;;;12.52;7.60;;;12.60;1.00;;;;;;20704714;28;20027;-84
2024/03/18 18:46:02;;;;;;;13.05;8.30;;;12.20;1.00;;;;;;20507752;28;20137;-83
2024/03/18 18:56:04;;;;;;;13.25;8.55;;;11.80;1.00;;;;;;20698494;28;20069;-84
2024/03/18 19:06:08;;;;;;;14.70;8.57;;;11.50;2.30;;;;;;20728274;28;20060;-84
2024/03/18 19:16:16;;;;;;;20.88;12.40;;;11.30;5.60;;;;;;20693921;28;20053;-85
2024/03/18 19:26:20;;;;;;;23.20;13.68;;;11.00;16.60;;;;;;20667689;28;20103;-85
2024/03/18 19:36:22;;;;;;;15.65;8.77;;;10.90;20.90;;;;;;20602337;28;20049;-84
2024/03/18 19:46:23;;;;;;;15.43;7.90;;;10.90;33.90;;;;;;20732860;28;20050;-84
2024/03/18 19:56:28;;;;;;;16.38;7.68;;;10.80;32.40;;;;;;20721193;28;20054;-85
2024/03/18 20:06:29;;;;;;;17.10;8.57;;;10.80;30.10;;;;;;20707141;28;20039;-84
2024/03/18 20:16:32;;;;;;;15.13;8.75;;;10.60;30.20;;;;;;20568092;28;20421;-84
2024/03/18 20:26:34;;;;;;;14.60;8.43;;;10.50;27.30;;;;;;20640773;28;20038;-84
2024/03/18 20:36:37;;;;;;;15.38;8.45;;;10.30;32.30;;;;;;20750477;28;20045;-85
2024/03/18 20:46:38;;;;;;;15.55;8.50;;;10.20;31.50;;;;;;20759920;28;20042;-85
2024/03/18 20:56:41;;;;;;;17.60;8.20;;;10.20;34.20;;;;;;20859233;28;20049;-84
2024/03/18 21:06:54;;;;;;;17.17;8.70;;;10.10;43.20;;;;;;20888194;28;20064;-86
2024/03/18 21:17:09;;;;;;;19.33;8.13;;;10.00;51.60;;;;;;20735074;28;20042;-86
2024/03/18 21:27:25;;;;;;;16.52;8.07;;;10.10;51.50;;;;;;20720668;28;20046;-86
2024/03/18 21:37:45;;;;;;;17.73;8.00;;;10.10;35.10;;;;;;20744439;28;20050;-86
2024/03/18 21:47:51;;;;;;;17.65;7.85;;;10.10;28.90;;;;;;20716656;28;20045;-84
2024/03/18 21:57:57;;;;;;;15.75;7.15;;;10.10;29.10;;;;;;20743871;28;20069;-86
2024/03/18 22:08:01;;;;;;;16.05;6.13;;;10.10;30.70;;;;;;20863063;28;20030;-79
2024/03/18 22:52:43;;;;;;;11.40;5.43;;;10.00;30.40;;;;;;21137037;22;20457;-49
2024/03/18 23:02:55;;;;;;;13.30;6.43;;;10.00;34.20;;;;;;20818812;23;20076;-86
2024/03/18 23:13:28;;;;;;;12.60;6.35;;;9.90;40.10;;;;;;20735393;28;20057;-86
2024/03/18 23:23:34;;;;;;;16.65;6.22;;;9.90;45.20;;;;;;20756215;28;20041;-86
2024/03/18 23:33:48;;;;;;;16.33;6.43;;;9.90;46.90;;;;;;20668995;28;20038;-86
2024/03/18 23:43:50;;;;;;;14.57;6.90;;;9.90;52.00;;;;;;20739990;28;20034;-85
2024/03/18 23:54:00;;;;;;;12.68;6.13;;;9.80;53.00;;;;;;20769162;28;20133;-86
